createdAt,value
2019-03-22T00:01:59.893Z,10.93
2019-03-22T00:04:29.860Z,9.83
2019-03-22T00:06:59.743Z,10.10
2019-03-22T00:09:29.745Z,9.10
2019-03-22T00:11:59.760Z,9.17
2019-03-22T00:14:29.737Z,9.60
2019-03-22T00:16:59.689Z,9.20
2019-03-22T00:19:29.684Z,8.63
2019-03-22T00:21:59.662Z,8.97
2019-03-22T00:24:29.732Z,9.83
2019-03-22T00:26:59.791Z,8.90
2019-03-22T00:29:29.723Z,9.17
2019-03-22T00:31:59.630Z,8.90
2019-03-22T00:34:29.662Z,8.83
2019-03-22T00:36:59.627Z,9.13
2019-03-22T00:39:48.422Z,8.70
2019-03-22T00:42:18.397Z,9.40
2019-03-22T00:44:48.305Z,8.87
2019-03-22T00:47:18.325Z,8.83
2019-03-22T00:49:48.195Z,9.27
2019-03-22T00:52:18.155Z,8.50
2019-03-22T00:54:48.168Z,9.50
2019-03-22T00:57:27.985Z,9.57
2019-03-22T00:59:49.725Z,9.03
2019-03-22T01:02:19.723Z,9.30
2019-03-22T01:04:49.683Z,9.03
2019-03-22T01:07:19.595Z,9.80
2019-03-22T01:09:49.716Z,8.93
2019-03-22T01:12:19.615Z,9.53
2019-03-22T01:14:49.500Z,8.70
2019-03-22T01:17:19.519Z,8.50
2019-03-22T01:19:49.463Z,9.07
2019-03-22T01:22:19.444Z,9.00
2019-03-22T01:24:49.417Z,9.50
2019-03-22T01:27:19.401Z,9.20
2019-03-22T01:29:49.283Z,9.17
2019-03-22T01:32:19.318Z,8.73
2019-03-22T01:34:49.277Z,9.20
2019-03-22T01:37:19.236Z,10.40
2019-03-22T01:39:49.159Z,9.50
2019-03-22T01:42:19.052Z,9.17
2019-03-22T01:44:48.913Z,9.23
2019-03-22T01:47:18.939Z,9.87
2019-03-22T01:49:48.838Z,9.83
2019-03-22T01:52:18.808Z,9.33
2019-03-22T01:54:48.750Z,9.60
2019-03-22T01:57:18.720Z,8.97
2019-03-22T01:59:48.607Z,9.27
2019-03-22T02:02:18.613Z,9.97
2019-03-22T02:04:48.484Z,9.63
2019-03-22T02:07:18.363Z,9.73
2019-03-22T02:09:48.373Z,9.17
2019-03-22T02:12:18.356Z,8.93
2019-03-22T02:14:48.275Z,9.67
2019-03-22T02:17:18.301Z,9.37
2019-03-22T02:19:48.189Z,9.33
2019-03-22T02:22:19.197Z,9.47
2019-03-22T02:24:49.149Z,9.67
2019-03-22T02:27:19.071Z,8.83
2019-03-22T02:29:49.051Z,8.87
2019-03-22T02:32:19.073Z,9.13
2019-03-22T02:34:49.010Z,9.20
2019-03-22T02:37:18.994Z,9.50
2019-03-22T02:39:48.943Z,9.10
2019-03-22T02:42:18.922Z,8.60
2019-03-22T02:44:48.906Z,9.57
2019-03-22T02:47:18.884Z,9.67
2019-03-22T02:49:48.792Z,8.70
2019-03-22T02:52:18.767Z,9.83
2019-03-22T02:54:48.766Z,9.80
2019-03-22T02:57:18.711Z,8.90
2019-03-22T02:59:48.705Z,8.73
2019-03-22T03:02:18.757Z,9.83
2019-03-22T03:04:48.710Z,9.50
2019-03-22T03:07:18.667Z,9.40
2019-03-22T03:09:48.700Z,8.87
2019-03-22T03:12:18.654Z,9.27
2019-03-22T03:14:48.633Z,9.53
2019-03-22T03:17:18.648Z,9.40
2019-03-22T03:19:48.615Z,8.80
2019-03-22T03:22:18.573Z,9.10
2019-03-22T03:24:48.546Z,10.47
2019-03-22T03:27:18.508Z,10.17
2019-03-22T03:29:48.451Z,9.57
2019-03-22T03:32:18.442Z,9.47
2019-03-22T03:34:48.417Z,10.43
2019-03-22T03:37:18.381Z,9.63
2019-03-22T03:39:48.444Z,10.13
2019-03-22T03:42:18.390Z,9.93
2019-03-22T03:44:48.348Z,9.67
2019-03-22T03:47:18.374Z,9.20
2019-03-22T03:49:48.343Z,9.50
2019-03-22T03:52:18.340Z,11.30
2019-03-22T03:54:48.354Z,9.37
2019-03-22T03:57:18.241Z,9.60
2019-03-22T03:59:48.222Z,9.97
2019-03-22T04:02:18.268Z,9.47
2019-03-22T04:04:48.250Z,10.07
2019-03-22T04:07:18.176Z,10.07
2019-03-22T04:09:48.153Z,9.97
2019-03-22T04:12:18.054Z,9.23
2019-03-22T04:14:48.001Z,9.93
2019-03-22T04:17:18.041Z,9.67
2019-03-22T04:19:48.003Z,10.07
2019-03-22T04:22:17.972Z,10.57
2019-03-22T04:24:48.009Z,9.17
2019-03-22T04:27:18.000Z,9.83
2019-03-22T04:29:47.960Z,9.93
2019-03-22T04:32:17.913Z,10.53
2019-03-22T04:34:47.806Z,10.97
2019-03-22T04:37:17.767Z,10.00
2019-03-22T04:39:47.779Z,14.43
2019-03-22T04:42:18.034Z,10.67
2019-03-22T04:44:47.997Z,9.53
2019-03-22T04:47:20.979Z,9.63
2019-03-22T04:49:52.467Z,9.93
2019-03-22T04:52:25.815Z,9.57
2019-03-22T04:54:58.789Z,9.80
2019-03-22T04:57:30.238Z,9.83
2019-03-22T05:00:01.983Z,10.27
2019-03-22T05:02:33.533Z,10.20
2019-03-22T05:05:04.933Z,10.37
2019-03-22T05:07:35.405Z,10.63
2019-03-22T05:10:06.314Z,10.40
2019-03-22T05:12:37.396Z,10.37
2019-03-22T05:15:09.721Z,10.53
2019-03-22T05:17:39.587Z,10.27
2019-03-22T05:20:11.082Z,11.03
2019-03-22T05:22:41.794Z,12.20
2019-03-22T05:25:12.799Z,12.50
2019-03-22T05:27:45.527Z,11.73
2019-03-22T05:30:40.636Z,10.80
2019-03-22T05:33:10.580Z,10.90
2019-03-22T05:35:40.493Z,12.33
2019-03-22T05:38:10.395Z,9.80
2019-03-22T05:40:40.336Z,11.30
2019-03-22T05:43:10.220Z,10.97
2019-03-22T05:45:40.143Z,11.43
2019-03-22T05:48:10.120Z,12.37
2019-03-22T05:50:40.013Z,11.30
2019-03-22T05:53:09.874Z,12.03
2019-03-22T05:55:39.806Z,11.83
2019-03-22T05:58:09.788Z,12.37
2019-03-22T06:00:39.726Z,12.30
2019-03-22T06:03:09.648Z,13.43
2019-03-22T06:05:39.567Z,14.10
2019-03-22T06:08:09.501Z,13.50
2019-03-22T06:10:39.429Z,14.37
2019-03-22T06:13:09.381Z,13.70
2019-03-22T06:15:39.328Z,17.87
2019-03-22T06:18:09.273Z,22.33
2019-03-22T06:20:39.187Z,16.03
2019-03-22T06:23:09.144Z,16.10
2019-03-22T06:25:39.112Z,20.00
2019-03-22T06:28:09.110Z,21.07
2019-03-22T06:30:38.990Z,17.87
2019-03-22T06:33:08.965Z,15.17
2019-03-22T06:35:38.877Z,14.37
2019-03-22T06:38:08.825Z,15.53
2019-03-22T06:40:38.810Z,14.60
2019-03-22T06:43:08.794Z,13.83
2019-03-22T06:45:38.766Z,15.63
2019-03-22T06:48:08.791Z,14.93
2019-03-22T06:50:38.754Z,15.00
2019-03-22T06:53:08.737Z,15.17
2019-03-22T06:55:38.754Z,15.57
2019-03-22T06:58:08.712Z,15.57
2019-03-22T07:00:38.608Z,15.63
2019-03-22T07:03:08.631Z,15.77
2019-03-22T07:05:38.526Z,14.90
2019-03-22T07:08:08.477Z,14.33
2019-03-22T07:10:38.507Z,14.37
2019-03-22T07:13:08.485Z,14.57
2019-03-22T07:15:38.389Z,14.97
2019-03-22T07:18:08.408Z,14.93
2019-03-22T07:20:38.383Z,16.00
2019-03-22T07:23:08.348Z,15.33
2019-03-22T07:25:38.279Z,14.83
2019-03-22T07:28:08.178Z,14.40
2019-03-22T07:30:38.140Z,13.43
2019-03-22T07:33:08.105Z,14.50
2019-03-22T07:35:38.374Z,14.53
2019-03-22T07:38:08.345Z,16.33
2019-03-22T07:40:38.616Z,15.57
2019-03-22T07:43:08.512Z,14.70
2019-03-22T07:45:38.495Z,14.23
2019-03-22T07:48:08.507Z,13.77
2019-03-22T07:50:38.408Z,13.47
2019-03-22T07:53:08.381Z,16.30
2019-03-22T07:55:38.628Z,13.77
2019-03-22T07:58:08.507Z,14.10
2019-03-22T08:00:38.680Z,13.27
2019-03-22T08:03:08.664Z,13.50
2019-03-22T08:05:50.228Z,13.60
2019-03-22T08:08:10.166Z,13.53
2019-03-22T08:10:40.199Z,13.63
2019-03-22T08:13:10.126Z,15.83
2019-03-22T08:15:40.073Z,14.83
2019-03-22T08:18:10.070Z,14.53
2019-03-22T08:20:40.088Z,13.40
2019-03-22T08:23:20.082Z,13.57
2019-03-22T08:25:50.128Z,13.53
2019-03-22T08:28:31.121Z,14.67
2019-03-22T08:31:01.112Z,13.80
2019-03-22T08:33:31.066Z,14.50
2019-03-22T08:36:01.099Z,14.37
2019-03-22T08:38:31.045Z,14.73
2019-03-22T08:41:01.004Z,14.80
2019-03-22T08:43:31.056Z,15.37
2019-03-22T08:46:01.110Z,15.30
2019-03-22T08:48:31.093Z,15.37
2019-03-22T08:51:01.106Z,15.30
2019-03-22T08:53:31.067Z,16.00
2019-03-22T08:56:01.054Z,15.43
2019-03-22T08:58:31.078Z,15.67
2019-03-22T09:01:01.136Z,17.53
2019-03-22T09:03:31.046Z,16.80
2019-03-22T09:06:00.979Z,17.10
2019-03-22T09:08:30.937Z,16.60
2019-03-22T09:11:00.906Z,17.00
2019-03-22T09:13:30.939Z,17.93
2019-03-22T09:16:00.919Z,17.77
2019-03-22T09:18:30.890Z,16.47
2019-03-22T09:21:00.910Z,17.03
2019-03-22T09:23:30.902Z,18.17
2019-03-22T09:26:00.895Z,18.20
2019-03-22T09:28:30.910Z,19.53
2019-03-22T09:31:10.239Z,19.77
2019-03-22T09:33:32.501Z,22.27
2019-03-22T09:36:02.445Z,20.67
2019-03-22T09:38:32.344Z,22.67
2019-03-22T09:41:02.263Z,23.47
2019-03-22T09:43:32.194Z,23.20
2019-03-22T09:46:02.142Z,22.97
2019-03-22T09:48:32.075Z,24.43
2019-03-22T09:51:02.063Z,25.13
2019-03-22T09:53:31.998Z,24.67
2019-03-22T09:56:01.862Z,25.30
2019-03-22T09:58:31.887Z,27.17
2019-03-22T10:01:01.777Z,26.00
2019-03-22T10:03:31.826Z,25.23
2019-03-22T10:06:01.792Z,36.33
2019-03-22T10:08:31.708Z,27.87
2019-03-22T10:11:01.687Z,25.53
2019-03-22T10:13:31.696Z,29.20
2019-03-22T10:16:02.108Z,28.47
2019-03-22T10:18:32.091Z,27.73
2019-03-22T10:21:02.110Z,27.37
2019-03-22T10:23:32.113Z,26.83
2019-03-22T10:26:02.122Z,26.70
2019-03-22T10:28:32.103Z,26.20
2019-03-22T10:31:02.154Z,30.17
2019-03-22T10:33:32.152Z,25.03
2019-03-22T10:36:02.156Z,25.33
2019-03-22T10:38:32.334Z,25.17
2019-03-22T10:41:02.460Z,22.57
2019-03-22T10:43:32.554Z,25.40
2019-03-22T10:46:02.521Z,26.73
2019-03-22T10:48:32.470Z,25.43
2019-03-22T10:51:02.719Z,24.83
2019-03-22T10:53:32.713Z,25.47
2019-03-22T10:56:02.649Z,28.73
2019-03-22T10:58:32.597Z,25.23
2019-03-22T11:01:02.492Z,24.10
2019-03-22T11:03:33.159Z,22.97
2019-03-22T11:06:03.457Z,23.30
2019-03-22T11:08:33.393Z,32.13
2019-03-22T11:11:03.290Z,26.57
2019-03-22T11:13:33.268Z,25.17
2019-03-22T11:16:03.191Z,24.47
2019-03-22T11:18:37.339Z,24.43
2019-03-22T11:21:05.691Z,25.23
2019-03-22T11:23:35.850Z,22.80
2019-03-22T11:26:05.935Z,24.70
2019-03-22T11:28:35.883Z,24.63
2019-03-22T11:31:05.954Z,26.63
2019-03-22T11:33:35.948Z,24.97
2019-03-22T11:36:06.052Z,24.97
2019-03-22T11:38:36.046Z,24.90
2019-03-22T11:41:06.383Z,23.53
2019-03-22T11:43:36.373Z,23.57
2019-03-22T11:46:06.354Z,24.23
2019-03-22T11:48:36.268Z,23.97
2019-03-22T11:51:06.677Z,24.40
2019-03-22T11:53:36.656Z,24.13
2019-03-22T11:56:09.365Z,23.67
2019-03-22T11:58:38.974Z,23.63
2019-03-22T12:01:09.066Z,23.87
2019-03-22T12:03:39.033Z,24.40
2019-03-22T12:06:09.001Z,24.03
2019-03-22T12:08:38.988Z,23.90
2019-03-22T12:11:08.896Z,21.67
2019-03-22T12:13:38.849Z,24.67
2019-03-22T12:16:08.861Z,25.30
2019-03-22T12:18:38.870Z,25.83
2019-03-22T12:21:08.757Z,23.77
2019-03-22T12:23:38.714Z,25.37
2019-03-22T12:26:08.747Z,23.53
2019-03-22T12:28:38.714Z,24.73
2019-03-22T12:31:08.679Z,24.00
2019-03-22T12:33:38.635Z,23.90
2019-03-22T12:36:08.617Z,23.10
2019-03-22T12:38:38.525Z,23.27
2019-03-22T12:41:08.481Z,22.03
2019-03-22T12:43:38.408Z,23.23
2019-03-22T12:46:08.316Z,24.43
2019-03-22T12:48:38.244Z,22.77
2019-03-22T12:51:08.225Z,22.10
2019-03-22T12:53:38.176Z,22.97
2019-03-22T12:56:08.205Z,21.30
2019-03-22T12:58:38.111Z,21.47
2019-03-22T13:01:10.177Z,21.67
2019-03-22T13:03:39.943Z,22.10
2019-03-22T13:06:09.937Z,21.37
2019-03-22T13:08:39.953Z,21.87
2019-03-22T13:11:09.871Z,23.07
2019-03-22T13:13:39.852Z,22.90
2019-03-22T13:16:09.862Z,23.80
2019-03-22T13:18:49.645Z,22.80
2019-03-22T13:21:11.517Z,22.70
2019-03-22T13:23:41.510Z,21.70
2019-03-22T13:26:11.416Z,21.80
2019-03-22T13:28:41.312Z,21.07
2019-03-22T13:31:11.745Z,22.20
2019-03-22T13:33:41.853Z,23.07
2019-03-22T13:36:11.896Z,22.27
2019-03-22T13:38:41.901Z,20.60
2019-03-22T13:41:11.847Z,21.10
2019-03-22T13:43:41.745Z,21.27
2019-03-22T13:46:11.700Z,21.37
2019-03-22T13:48:41.649Z,22.47
2019-03-22T13:51:11.644Z,19.43
2019-03-22T13:53:41.610Z,20.37
2019-03-22T13:56:11.571Z,19.33
2019-03-22T13:58:41.456Z,18.83
2019-03-22T14:01:11.340Z,18.67
2019-03-22T14:03:41.340Z,20.10
2019-03-22T14:06:11.308Z,21.53
2019-03-22T14:08:41.246Z,21.50
2019-03-22T14:11:11.235Z,20.33
2019-03-22T14:13:41.130Z,19.97
2019-03-22T14:16:11.044Z,20.90
2019-03-22T14:18:41.077Z,21.77
2019-03-22T14:21:10.996Z,22.77
2019-03-22T14:23:40.913Z,22.47
2019-03-22T14:26:10.926Z,20.57
2019-03-22T14:28:40.811Z,21.70
2019-03-22T14:31:11.133Z,21.83
2019-03-22T14:33:41.104Z,23.03
2019-03-22T14:36:11.073Z,22.67
2019-03-22T14:38:41.071Z,22.73
2019-03-22T14:41:11.106Z,22.13
2019-03-22T14:43:41.056Z,22.73
2019-03-22T14:46:11.036Z,20.33
2019-03-22T14:48:40.939Z,22.37
2019-03-22T14:51:10.899Z,22.37
2019-03-22T14:53:40.864Z,23.00
2019-03-22T14:56:10.797Z,22.43
2019-03-22T14:58:40.782Z,22.30
2019-03-22T15:01:10.751Z,23.70
2019-03-22T15:03:40.744Z,24.33
2019-03-22T15:06:10.650Z,23.33
2019-03-22T15:08:40.599Z,23.23
2019-03-22T15:11:10.673Z,23.17
2019-03-22T15:14:02.498Z,24.17
2019-03-22T15:16:48.689Z,25.10
2019-03-22T15:19:52.579Z,23.33
2019-03-22T15:22:44.296Z,22.73
2019-03-22T15:25:26.178Z,23.03
2019-03-22T15:28:13.825Z,23.30
2019-03-22T15:31:11.686Z,24.03
2019-03-22T15:34:04.798Z,24.40
2019-03-22T15:36:52.972Z,23.67
2019-03-22T15:42:03.648Z,23.90
2019-03-22T15:44:33.620Z,23.77
2019-03-22T15:47:03.599Z,24.13
2019-03-22T15:49:33.618Z,24.07
2019-03-22T15:52:03.626Z,24.00
2019-03-22T15:54:33.629Z,24.60
2019-03-22T15:57:03.547Z,24.63
2019-03-22T15:59:33.552Z,23.70
2019-03-22T16:02:03.657Z,25.30
2019-03-22T16:04:33.669Z,25.27
2019-03-22T16:07:03.665Z,24.17
2019-03-22T16:09:33.669Z,24.90
2019-03-22T16:12:03.916Z,25.57
2019-03-22T16:14:33.871Z,24.40
2019-03-22T16:17:03.894Z,25.70
2019-03-22T16:19:33.929Z,24.40
2019-03-22T16:22:03.952Z,25.87
2019-03-22T16:24:33.871Z,25.97
2019-03-22T16:27:03.816Z,25.17
2019-03-22T16:29:33.734Z,25.83
2019-03-22T16:32:03.726Z,26.03
2019-03-22T16:34:33.720Z,25.30
2019-03-22T16:37:04.994Z,26.87
2019-03-22T16:39:35.052Z,25.63
2019-03-22T16:42:05.025Z,26.17
2019-03-22T16:44:35.021Z,25.40
2019-03-22T16:47:05.053Z,27.03
2019-03-22T16:49:35.025Z,25.60
2019-03-22T16:52:04.928Z,26.77
2019-03-22T16:54:34.912Z,25.97
2019-03-22T16:57:04.913Z,26.10
2019-03-22T16:59:34.970Z,25.40
2019-03-22T17:02:05.020Z,26.43
2019-03-22T17:04:35.039Z,26.47
2019-03-22T17:07:05.015Z,26.10
2019-03-22T17:09:35.005Z,27.07
2019-03-22T17:12:05.028Z,25.50
2019-03-22T17:14:34.995Z,25.90
2019-03-22T17:17:05.052Z,24.73
2019-03-22T17:19:35.147Z,25.97
2019-03-22T17:22:05.207Z,25.10
2019-03-22T17:24:35.294Z,25.93
2019-03-22T17:27:05.262Z,26.87
2019-03-22T17:29:35.244Z,24.13
2019-03-22T17:32:05.527Z,24.20
2019-03-22T17:34:35.544Z,29.37
2019-03-22T17:37:05.541Z,30.63
2019-03-22T17:39:35.590Z,30.00
2019-03-22T17:42:05.610Z,28.97
2019-03-22T17:44:35.680Z,29.77
2019-03-22T17:47:06.051Z,31.43
2019-03-22T17:49:36.046Z,35.33
2019-03-22T17:52:06.021Z,37.73
2019-03-22T17:54:36.072Z,42.27
2019-03-22T17:57:06.152Z,45.13
2019-03-22T17:59:36.126Z,43.30
2019-03-22T18:02:06.126Z,41.23
2019-03-22T18:04:36.251Z,42.23
2019-03-22T18:07:06.244Z,45.23
2019-03-22T18:09:36.197Z,48.93
2019-03-22T18:12:06.255Z,44.97
2019-03-22T18:14:36.339Z,44.57
2019-03-22T18:17:06.251Z,40.90
2019-03-22T18:19:36.268Z,35.60
2019-03-22T18:22:06.188Z,32.40
2019-03-22T18:24:36.261Z,29.63
2019-03-22T18:27:06.559Z,30.10
2019-03-22T18:29:36.679Z,29.87
2019-03-22T18:32:06.720Z,29.80
2019-03-22T18:34:37.590Z,31.53
2019-03-22T18:37:07.762Z,33.03
2019-03-22T18:39:37.864Z,31.40
2019-03-22T18:42:07.861Z,30.70
2019-03-22T18:44:37.898Z,31.70
2019-03-22T18:47:07.928Z,30.27
2019-03-22T18:49:37.899Z,29.53
2019-03-22T18:52:08.308Z,27.97
2019-03-22T18:54:38.504Z,28.30
2019-03-22T18:57:08.466Z,28.17
2019-03-22T18:59:38.485Z,27.90
2019-03-22T19:02:08.365Z,29.03
2019-03-22T19:04:43.916Z,28.87
2019-03-22T19:07:10.002Z,30.50
2019-03-22T19:09:40.041Z,31.83
2019-03-22T19:12:10.128Z,29.77
2019-03-22T19:14:40.093Z,29.27
2019-03-22T19:17:13.448Z,27.37
2019-03-22T19:19:43.419Z,26.93
2019-03-22T19:22:13.300Z,25.60
2019-03-22T19:24:43.367Z,25.17
2019-03-22T19:27:13.330Z,24.93
2019-03-22T19:29:43.359Z,24.73
2019-03-22T19:32:13.926Z,25.73
2019-03-22T19:34:53.914Z,25.67
2019-03-22T19:37:15.609Z,27.37
2019-03-22T19:39:45.602Z,27.60
2019-03-22T19:42:16.697Z,29.03
2019-03-22T19:44:46.687Z,29.33
2019-03-22T19:47:16.929Z,30.83
2019-03-22T19:49:46.974Z,31.97
2019-03-22T19:52:16.993Z,31.37
2019-03-22T19:54:47.099Z,30.40
2019-03-22T19:57:17.318Z,30.07
2019-03-22T19:59:47.341Z,28.53
2019-03-22T20:02:17.331Z,28.03
2019-03-22T20:04:47.283Z,26.50
2019-03-22T20:07:26.393Z,26.70
2019-03-22T20:09:48.877Z,26.90
2019-03-22T20:12:18.908Z,28.40
2019-03-22T20:14:48.868Z,24.93
2019-03-22T20:17:18.828Z,26.23
2019-03-22T20:19:48.802Z,24.30
2019-03-22T20:22:18.775Z,25.90
2019-03-22T20:24:48.749Z,25.53
2019-03-22T20:27:19.009Z,24.50
2019-03-22T20:29:48.979Z,24.97
2019-03-22T20:32:19.001Z,24.20
2019-03-22T20:34:48.996Z,24.73
2019-03-22T20:37:19.233Z,23.63
2019-03-22T20:39:50.831Z,23.30
2019-03-22T20:42:20.795Z,23.30
2019-03-22T20:44:50.837Z,23.27
2019-03-22T20:47:20.867Z,22.67
2019-03-22T20:49:52.313Z,21.67
2019-03-22T20:52:22.248Z,22.00
2019-03-22T20:54:52.540Z,21.60
2019-03-22T20:57:22.558Z,21.73
2019-03-22T20:59:52.540Z,21.67
2019-03-22T21:02:22.460Z,21.40
2019-03-22T21:04:52.761Z,21.37
2019-03-22T21:07:23.120Z,22.73
2019-03-22T21:09:53.066Z,22.97
2019-03-22T21:12:23.098Z,21.43
2019-03-22T21:14:53.036Z,20.93
2019-03-22T21:17:22.925Z,20.57
2019-03-22T21:19:52.814Z,19.77
2019-03-22T21:22:22.769Z,20.30
2019-03-22T21:24:52.925Z,20.00
2019-03-22T21:27:22.921Z,20.97
2019-03-22T21:29:52.846Z,22.40
2019-03-22T21:32:22.793Z,19.70
2019-03-22T21:34:52.777Z,18.90
2019-03-22T21:37:22.717Z,18.57
2019-03-22T21:39:52.746Z,18.17
2019-03-22T21:42:22.773Z,18.60
2019-03-22T21:44:52.732Z,17.97
2019-03-22T21:47:22.783Z,19.93
2019-03-22T21:49:52.866Z,18.80
2019-03-22T21:52:22.902Z,18.77
2019-03-22T21:54:52.925Z,18.40
2019-03-22T21:57:22.927Z,17.87
2019-03-22T21:59:52.852Z,18.77
2019-03-22T22:02:22.847Z,18.60
2019-03-22T22:04:52.882Z,18.30
2019-03-22T22:07:23.308Z,17.80
2019-03-22T22:09:53.363Z,18.43
2019-03-22T22:12:23.315Z,19.03
2019-03-22T22:14:53.359Z,18.50
2019-03-22T22:17:24.167Z,18.27
2019-03-22T22:19:54.364Z,18.47
2019-03-22T22:22:24.407Z,18.93
2019-03-22T22:24:54.377Z,18.60
2019-03-22T22:27:24.957Z,19.00
2019-03-22T22:29:54.917Z,18.27
2019-03-22T22:32:24.949Z,20.43
2019-03-22T22:34:54.973Z,20.13
2019-03-22T22:37:24.949Z,20.00
2019-03-22T22:39:54.987Z,20.20
2019-03-22T22:42:25.036Z,19.37
2019-03-22T22:44:54.996Z,18.53
2019-03-22T22:47:25.024Z,20.47
2019-03-22T22:49:54.987Z,19.57
2019-03-22T22:52:24.893Z,19.07
2019-03-22T22:54:54.856Z,19.20
2019-03-22T22:57:24.815Z,18.60
2019-03-22T22:59:54.680Z,19.87
2019-03-22T23:02:24.620Z,18.17
2019-03-22T23:04:54.465Z,18.30
2019-03-22T23:07:24.356Z,17.93
2019-03-22T23:09:54.214Z,17.83
2019-03-22T23:12:24.160Z,18.03
2019-03-22T23:14:54.097Z,17.30
2019-03-22T23:17:23.992Z,17.63
2019-03-22T23:19:53.985Z,16.77
2019-03-22T23:22:24.183Z,17.63
2019-03-22T23:24:54.064Z,17.23
2019-03-22T23:27:23.983Z,15.77
2019-03-22T23:29:53.978Z,16.03
2019-03-22T23:32:23.906Z,17.53
2019-03-22T23:34:58.993Z,15.33
2019-03-22T23:37:25.421Z,15.40
2019-03-22T23:39:55.384Z,15.97
2019-03-22T23:42:25.335Z,16.80
2019-03-22T23:44:55.266Z,16.20
2019-03-22T23:47:25.253Z,15.60
2019-03-22T23:49:55.164Z,16.67
2019-03-22T23:52:25.157Z,15.03
2019-03-22T23:54:55.042Z,14.30
2019-03-22T23:57:24.986Z,14.67
2019-03-22T23:59:54.989Z,14.70
